Time;durP1;ratioP1;P1;durP2;ratioP2;P2;SDS_P1;SDS_P2;PMS_P1;PMS_P2;Temp;Humidity;BMP_temperature;BMP_pressure;BME280_temperature;BME280_humidity;BME280_pressure;Samples;Min_cycle;Max_cycle;Signal;HPM_P1;HPM_P2
2021/06/20 00:00:38;;;;;;;5.43;2.40;;;25.00;79.10;;;;;;5031265;28;20080;-83
2021/06/20 00:03:04;;;;;;;2.78;2.40;;;24.90;79.00;;;;;;5031483;28;20032;-84
2021/06/20 00:05:36;;;;;;;3.53;2.60;;;24.90;79.10;;;;;;5032899;28;20033;-83
2021/06/20 00:08:09;;;;;;;2.50;2.30;;;24.90;78.70;;;;;;5031259;28;20487;-84
2021/06/20 00:10:37;;;;;;;3.45;2.50;;;24.90;78.70;;;;;;5031288;28;20061;-82
2021/06/20 00:13:03;;;;;;;4.53;2.83;;;24.90;78.80;;;;;;5031007;28;20485;-82
2021/06/20 00:15:30;;;;;;;4.22;2.67;;;24.90;78.80;;;;;;5031009;28;20042;-83
2021/06/20 00:17:56;;;;;;;3.63;2.53;;;24.90;78.80;;;;;;5032837;28;20343;-82
2021/06/20 00:20:25;;;;;;;4.20;2.95;;;24.90;78.90;;;;;;5030883;28;20045;-82
2021/06/20 00:22:51;;;;;;;3.90;2.83;;;24.90;79.00;;;;;;5030829;28;20037;-82
2021/06/20 00:25:17;;;;;;;4.00;3.15;;;24.90;79.10;;;;;;5029805;28;20045;-82
2021/06/20 00:27:44;;;;;;;9.02;3.10;;;24.90;79.20;;;;;;5034883;28;20103;-82
2021/06/20 00:30:13;;;;;;;7.97;2.88;;;24.90;79.20;;;;;;5033225;28;20025;-81
2021/06/20 00:32:38;;;;;;;5.30;2.80;;;24.90;79.30;;;;;;5052431;28;20028;-81
2021/06/20 00:35:06;;;;;;;3.35;2.53;;;24.90;79.30;;;;;;5050486;28;20041;-83
2021/06/20 00:37:32;;;;;;;4.32;2.30;;;24.90;79.60;;;;;;5050761;28;20043;-82
2021/06/20 00:39:57;;;;;;;6.68;3.03;;;24.90;80.10;;;;;;5053191;28;20056;-83
2021/06/20 00:42:23;;;;;;;5.25;2.97;;;25.00;80.70;;;;;;5050545;28;20089;-81
2021/06/20 00:44:51;;;;;;;7.43;2.88;;;24.90;80.70;;;;;;5052572;28;20364;-81
2021/06/20 00:47:17;;;;;;;4.43;3.08;;;24.90;80.80;;;;;;5033106;28;20115;-81
2021/06/20 00:49:43;;;;;;;5.45;3.13;;;24.90;81.10;;;;;;5050732;28;20036;-80
2021/06/20 00:52:09;;;;;;;4.50;3.22;;;24.90;80.90;;;;;;5050783;28;20037;-80
2021/06/20 00:54:35;;;;;;;5.78;3.20;;;24.90;81.10;;;;;;5050142;28;20037;-81
2021/06/20 00:57:01;;;;;;;6.00;3.28;;;24.90;81.30;;;;;;5032539;28;20033;-80
2021/06/20 00:59:30;;;;;;;7.28;4.68;;;24.90;81.40;;;;;;5051820;28;20017;-83
2021/06/20 01:01:56;;;;;;;10.18;3.60;;;25.00;81.50;;;;;;5032379;28;20355;-83
2021/06/20 01:04:22;;;;;;;7.95;3.13;;;24.90;81.90;;;;;;5050127;28;20041;-83
2021/06/20 01:06:48;;;;;;;4.72;3.38;;;24.90;82.30;;;;;;5050078;28;20032;-81
2021/06/20 01:09:15;;;;;;;8.20;3.88;;;24.90;82.40;;;;;;5049686;28;20106;-82
2021/06/20 01:11:41;;;;;;;5.80;3.40;;;24.90;82.30;;;;;;5034184;28;20036;-82
2021/06/20 01:14:06;;;;;;;8.48;3.78;;;25.00;82.40;;;;;;5031996;28;20370;-82
2021/06/20 01:16:32;;;;;;;3.55;3.20;;;25.00;82.70;;;;;;5050140;28;20033;-82
2021/06/20 01:18:58;;;;;;;7.55;3.80;;;24.90;83.00;;;;;;5049975;28;20029;-82
2021/06/20 01:21:24;;;;;;;6.53;3.45;;;25.00;83.10;;;;;;5049900;28;20313;-81
2021/06/20 01:23:50;;;;;;;8.80;3.75;;;25.00;83.30;;;;;;5033816;28;20524;-82
2021/06/20 01:26:16;;;;;;;6.50;3.47;;;25.00;83.30;;;;;;5049778;28;20132;-83
2021/06/20 01:28:52;;;;;;;4.55;3.63;;;25.00;83.40;;;;;;5049848;28;20088;-83
2021/06/20 01:31:18;;;;;;;4.55;3.10;;;25.00;83.40;;;;;;5049982;28;20048;-82
2021/06/20 01:33:45;;;;;;;7.05;3.70;;;25.10;83.80;;;;;;5049518;28;20041;-83
2021/06/20 01:36:11;;;;;;;7.07;3.40;;;25.00;84.00;;;;;;5037914;28;20395;-84
2021/06/20 01:38:37;;;;;;;4.82;3.60;;;25.00;84.60;;;;;;5013892;28;20025;-84
2021/06/20 01:41:03;;;;;;;4.57;3.35;;;25.00;84.70;;;;;;5028863;28;20041;-81
2021/06/20 01:43:28;;;;;;;6.53;3.67;;;25.00;84.60;;;;;;5030049;28;20056;-82
2021/06/20 01:45:54;;;;;;;7.30;4.03;;;25.00;84.50;;;;;;5012111;28;20029;-83
2021/06/20 01:48:20;;;;;;;4.25;3.45;;;25.00;84.60;;;;;;5029172;28;20049;-83
2021/06/20 01:50:45;;;;;;;6.45;3.58;;;25.00;85.10;;;;;;5031258;28;20107;-82
2021/06/20 01:53:16;;;;;;;3.80;3.22;;;24.90;85.30;;;;;;5029867;28;20528;-82
2021/06/20 01:55:44;;;;;;;6.30;3.70;;;24.90;85.70;;;;;;5029659;28;20128;-82
2021/06/20 01:58:12;;;;;;;;;;;24.90;86.10;;;;;;5029988;28;20069;-82
2021/06/20 02:00:41;;;;;;;7.97;4.07;;;24.90;86.20;;;;;;5012398;28;19948;-81
2021/06/20 02:03:08;;;;;;;5.97;3.60;;;24.80;86.30;;;;;;5029378;28;20045;-82
2021/06/20 02:05:34;;;;;;;;;;;24.90;86.40;;;;;;5031612;28;20021;-82
2021/06/20 02:08:00;;;;;;;9.68;4.10;;;24.90;86.60;;;;;;5012050;28;19925;-81
2021/06/20 02:10:25;;;;;;;8.93;3.95;;;24.90;86.60;;;;;;5011185;28;20460;-81
2021/06/20 02:12:52;;;;;;;6.22;3.70;;;24.90;86.70;;;;;;5011798;28;20033;-82
2021/06/20 02:15:18;;;;;;;9.05;4.30;;;25.00;86.90;;;;;;5029047;28;20583;-83
2021/06/20 02:17:44;;;;;;;7.38;4.00;;;24.90;87.60;;;;;;5030821;28;20045;-83
2021/06/20 02:20:12;;;;;;;7.20;3.80;;;25.00;88.50;;;;;;5029637;28;20082;-82
2021/06/20 02:22:39;;;;;;;5.47;4.20;;;25.00;90.30;;;;;;5029213;28;20117;-81
2021/06/20 02:25:10;;;;;;;6.07;4.13;;;24.90;90.70;;;;;;5011897;28;20040;-83
2021/06/20 02:27:36;;;;;;;9.68;4.10;;;24.90;90.50;;;;;;5008702;28;20054;-83
2021/06/20 02:30:04;;;;;;;4.82;4.20;;;24.90;90.20;;;;;;5010999;28;20047;-80
2021/06/20 02:32:29;;;;;;;;;;;24.90;90.50;;;;;;5011442;28;20044;-82
2021/06/20 02:34:55;;;;;;;7.82;4.07;;;24.90;90.30;;;;;;5006782;28;19913;-82
2021/06/20 02:37:22;;;;;;;6.70;4.25;;;24.80;91.10;;;;;;5011168;28;20080;-82
2021/06/20 02:39:49;;;;;;;10.25;4.93;;;24.60;91.60;;;;;;5007639;28;20452;-83
2021/06/20 02:42:18;;;;;;;7.15;4.53;;;24.60;92.80;;;;;;5009358;28;20108;-83
2021/06/20 02:44:45;;;;;;;11.70;4.18;;;24.60;93.20;;;;;;5011189;28;20022;-81
2021/06/20 02:47:12;;;;;;;9.70;5.07;;;24.60;93.40;;;;;;5009691;28;20100;-81
2021/06/20 02:49:39;;;;;;;8.55;5.28;;;24.60;93.40;;;;;;5009246;28;20034;-84
2021/06/20 02:52:07;;;;;;;9.40;3.92;;;24.40;93.50;;;;;;5008998;28;20111;-82
2021/06/20 02:54:32;;;;;;;;;;;24.30;92.70;;;;;;5013410;28;20040;-82
2021/06/20 02:56:59;;;;;;;9.75;2.97;;;24.30;92.20;;;;;;5012210;28;19905;-82
2021/06/20 02:59:27;;;;;;;5.18;2.22;;;24.30;92.70;;;;;;5013347;28;20490;-83
2021/06/20 03:01:53;;;;;;;16.08;2.78;;;24.10;93.40;;;;;;5009625;28;20038;-81
2021/06/20 03:04:19;;;;;;;7.45;2.25;;;24.00;94.60;;;;;;5012240;28;20076;-83
2021/06/20 03:06:45;;;;;;;9.38;2.08;;;23.70;95.10;;;;;;5012425;28;20042;-81
2021/06/20 03:09:10;;;;;;;5.95;1.50;;;23.60;95.80;;;;;;5012302;28;20029;-80
2021/06/20 03:11:41;;;;;;;6.90;1.50;;;23.40;96.20;;;;;;5014033;28;20037;-83
2021/06/20 03:14:13;;;;;;;9.50;1.70;;;23.20;96.80;;;;;;5012322;28;20045;-81
2021/06/20 03:16:40;;;;;;;7.70;1.30;;;23.20;97.00;;;;;;5012556;28;20034;-83
2021/06/20 03:19:06;;;;;;;8.20;1.35;;;23.00;97.80;;;;;;5012456;28;20073;-84
2021/06/20 03:21:31;;;;;;;10.50;1.88;;;22.90;98.20;;;;;;5012351;28;20037;-81
2021/06/20 03:23:57;;;;;;;6.13;1.00;;;23.00;98.10;;;;;;5014223;28;20463;-81
2021/06/20 03:26:23;;;;;;;9.52;1.65;;;23.00;98.10;;;;;;5012058;28;20467;-82
2021/06/20 03:28:49;;;;;;;4.47;1.40;;;23.00;98.10;;;;;;5008431;28;20054;-82
2021/06/20 03:31:17;;;;;;;4.95;1.10;;;23.00;98.60;;;;;;5012094;28;20034;-82
2021/06/20 03:33:44;;;;;;;10.63;1.48;;;22.70;98.90;;;;;;5007538;28;20033;-83
2021/06/20 03:36:09;;;;;;;6.20;1.70;;;22.80;98.40;;;;;;5012323;28;20026;-83
2021/06/20 03:38:36;;;;;;;6.10;1.25;;;22.80;98.60;;;;;;5008166;28;20081;-84
2021/06/20 03:41:01;;;;;;;5.75;1.40;;;22.70;98.90;;;;;;5012078;28;20411;-82
2021/06/20 03:43:27;;;;;;;9.15;2.78;;;22.60;99.40;;;;;;5011656;28;20038;-82
2021/06/20 03:45:53;;;;;;;10.27;1.92;;;22.80;99.90;;;;;;5008783;28;20509;-82
2021/06/20 03:48:19;;;;;;;17.80;2.55;;;22.80;99.50;;;;;;5011805;28;20028;-83
2021/06/20 03:50:44;;;;;;;13.15;3.13;;;22.80;99.90;;;;;;5013923;28;20018;-81
2021/06/20 03:53:11;;;;;;;9.85;2.35;;;22.80;99.90;;;;;;5011746;28;20105;-80
2021/06/20 03:55:38;;;;;;;9.98;2.42;;;22.80;99.90;;;;;;5011518;28;20038;-83
2021/06/20 03:58:06;;;;;;;16.10;2.92;;;22.90;99.90;;;;;;5011735;28;20029;-81
2021/06/20 04:00:33;;;;;;;13.15;2.60;;;22.80;99.90;;;;;;5011349;28;20147;-80
2021/06/20 04:02:59;;;;;;;10.97;2.73;;;22.70;99.90;;;;;;5012656;28;20278;-84
2021/06/20 04:05:25;;;;;;;9.23;2.25;;;22.80;99.90;;;;;;5004468;28;20034;-82
2021/06/20 04:07:54;;;;;;;10.23;2.92;;;22.70;99.90;;;;;;5011615;28;20049;-82
2021/06/20 04:10:21;;;;;;;9.50;2.53;;;22.70;99.90;;;;;;5011802;28;20042;-83
2021/06/20 04:12:46;;;;;;;11.02;2.67;;;22.60;99.90;;;;;;5007401;28;20422;-85
2021/06/20 04:15:13;;;;;;;11.32;2.58;;;22.60;99.90;;;;;;5011314;28;20030;-81
2021/06/20 04:17:38;;;;;;;9.25;2.30;;;22.60;99.90;;;;;;5012982;28;20030;-82
2021/06/20 04:20:10;;;;;;;9.15;2.05;;;22.50;99.90;;;;;;5009986;28;20038;-81
2021/06/20 04:22:36;;;;;;;11.65;2.65;;;22.40;99.90;;;;;;5011249;28;20035;-80
2021/06/20 04:25:01;;;;;;;18.25;2.55;;;22.40;99.90;;;;;;5011102;28;20040;-81
2021/06/20 04:27:27;;;;;;;11.25;2.50;;;22.30;99.90;;;;;;5007363;28;20041;-81
2021/06/20 04:29:53;;;;;;;11.52;2.70;;;22.30;99.90;;;;;;5032429;28;20466;-81
2021/06/20 04:32:18;;;;;;;9.73;2.50;;;22.40;99.90;;;;;;5030543;28;20088;-81
2021/06/20 04:34:44;;;;;;;10.43;2.25;;;22.40;99.90;;;;;;5013367;28;20104;-83
2021/06/20 04:37:09;;;;;;;6.47;1.90;;;22.40;99.90;;;;;;5032050;28;20052;-83
2021/06/20 04:39:35;;;;;;;10.02;2.20;;;22.40;99.90;;;;;;5033159;28;20138;-81
2021/06/20 04:42:01;;;;;;;9.43;2.50;;;22.30;99.90;;;;;;5013749;28;20037;-78
2021/06/20 04:44:42;;;;;;;9.10;2.50;;;22.30;99.90;;;;;;5015310;28;20017;-79
2021/06/20 04:47:12;;;;;;;8.48;1.98;;;22.30;99.90;;;;;;5030598;28;20026;-80
2021/06/20 04:49:38;;;;;;;9.38;1.92;;;22.30;99.90;;;;;;5030311;28;20025;-81
2021/06/20 04:52:08;;;;;;;9.02;2.60;;;22.30;99.90;;;;;;5012928;28;20033;-80
2021/06/20 04:54:36;;;;;;;12.75;2.78;;;22.20;99.90;;;;;;5030606;28;20456;-80
2021/06/20 04:57:03;;;;;;;;;;;22.10;99.90;;;;;;5013373;28;20541;-81
2021/06/20 04:59:30;;;;;;;9.20;2.47;;;22.00;99.90;;;;;;5014403;28;20331;-80
2021/06/20 05:01:57;;;;;;;7.68;2.22;;;22.10;99.90;;;;;;5030109;28;20187;-81
2021/06/20 05:04:22;;;;;;;15.77;2.88;;;22.00;99.90;;;;;;5012502;28;20052;-80
2021/06/20 05:06:48;;;;;;;19.42;3.33;;;22.00;99.90;;;;;;5030070;28;20081;-82
2021/06/20 05:09:13;;;;;;;16.08;3.20;;;22.00;99.90;;;;;;5030317;28;20029;-81
2021/06/20 05:11:39;;;;;;;13.68;3.88;;;21.90;99.90;;;;;;5031792;28;20104;-80
2021/06/20 05:14:04;;;;;;;14.93;3.55;;;21.90;99.90;;;;;;5029453;28;20033;-81
2021/06/20 05:16:30;;;;;;;14.27;2.85;;;21.90;99.90;;;;;;5029371;28;20120;-83
2021/06/20 05:18:56;;;;;;;14.15;2.78;;;22.00;99.90;;;;;;5029551;28;20033;-83
2021/06/20 05:21:21;;;;;;;17.05;3.53;;;21.90;99.90;;;;;;5029913;28;20041;-81
2021/06/20 05:23:47;;;;;;;18.05;4.20;;;21.90;99.90;;;;;;5031678;28;20077;-82
2021/06/20 05:26:14;;;;;;;18.15;3.42;;;21.90;99.90;;;;;;5029989;28;20029;-81
2021/06/20 05:28:39;;;;;;;13.77;3.50;;;22.00;99.90;;;;;;5012096;28;20049;-81
2021/06/20 05:31:05;;;;;;;15.43;3.05;;;22.00;99.90;;;;;;5012768;28;20199;-83
2021/06/20 05:33:31;;;;;;;17.40;3.40;;;22.10;99.90;;;;;;5012609;28;20107;-84
2021/06/20 05:35:56;;;;;;;13.23;3.47;;;21.90;99.90;;;;;;5035332;28;20065;-85
2021/06/20 05:38:23;;;;;;;14.50;2.75;;;21.90;99.90;;;;;;5030258;28;20077;-84
2021/06/20 05:40:49;;;;;;;17.98;3.28;;;21.90;99.90;;;;;;5012449;28;20030;-85
2021/06/20 05:43:14;;;;;;;16.02;3.05;;;22.00;99.90;;;;;;5029945;28;20103;-84
2021/06/20 05:45:41;;;;;;;16.42;3.33;;;22.00;99.90;;;;;;5030685;28;20116;-86
2021/06/20 05:48:06;;;;;;;23.08;4.25;;;21.90;99.90;;;;;;5029720;28;20025;-86
2021/06/20 05:50:32;;;;;;;21.23;4.38;;;21.90;99.90;;;;;;5031278;28;20022;-82
2021/06/20 05:52:58;;;;;;;16.95;3.42;;;22.00;99.90;;;;;;5012234;28;20033;-85
2021/06/20 05:55:23;;;;;;;15.77;3.85;;;22.10;99.90;;;;;;5029867;28;20045;-79
2021/06/20 05:57:49;;;;;;;18.25;3.67;;;22.10;99.90;;;;;;5029789;28;20088;-79
2021/06/20 06:00:15;;;;;;;15.65;3.85;;;22.20;99.90;;;;;;5029710;28;20439;-81
2021/06/20 06:02:41;;;;;;;11.50;3.28;;;22.20;99.90;;;;;;5031148;28;20018;-79
2021/06/20 06:05:08;;;;;;;13.60;3.45;;;22.30;99.90;;;;;;5029457;28;20049;-83
2021/06/20 06:07:34;;;;;;;18.60;3.72;;;22.30;99.90;;;;;;5012381;28;20129;-82
2021/06/20 06:10:00;;;;;;;19.13;4.10;;;22.30;99.90;;;;;;5012012;28;20038;-78
2021/06/20 06:12:26;;;;;;;17.83;3.60;;;22.30;99.90;;;;;;5011647;28;20034;-82
2021/06/20 06:14:53;;;;;;;20.15;4.18;;;22.40;99.90;;;;;;5030999;28;20539;-75
2021/06/20 06:17:24;;;;;;;17.98;3.50;;;22.40;99.90;;;;;;5029144;28;20083;-80
2021/06/20 06:19:50;;;;;;;15.88;3.25;;;22.50;99.90;;;;;;5029046;28;20069;-76
2021/06/20 06:22:20;;;;;;;13.60;3.08;;;22.60;99.90;;;;;;5029265;28;20347;-76
2021/06/20 06:24:47;;;;;;;14.18;4.57;;;22.60;99.90;;;;;;5011675;28;20368;-75
2021/06/20 06:27:14;;;;;;;16.45;3.65;;;22.60;99.90;;;;;;5013897;28;20022;-75
2021/06/20 06:29:40;;;;;;;11.13;3.03;;;22.70;99.90;;;;;;5034833;28;20033;-76
2021/06/20 06:32:07;;;;;;;15.48;3.05;;;22.70;99.90;;;;;;5032984;28;20491;-78
2021/06/20 06:34:34;;;;;;;13.23;3.30;;;22.70;99.90;;;;;;5032830;28;20033;-79
2021/06/20 06:37:00;;;;;;;12.60;3.43;;;22.80;99.90;;;;;;5032867;28;20116;-86
2021/06/20 06:39:27;;;;;;;15.00;3.22;;;22.80;99.90;;;;;;5035488;28;20054;-81
2021/06/20 06:41:53;;;;;;;15.57;3.92;;;22.90;99.90;;;;;;5017781;28;20018;-78
2021/06/20 06:44:19;;;;;;;12.57;3.45;;;23.00;99.90;;;;;;5015686;28;20038;-80
2021/06/20 06:46:45;;;;;;;13.00;2.80;;;23.10;99.90;;;;;;5015743;28;20129;-81
2021/06/20 06:49:10;;;;;;;17.58;3.63;;;23.10;99.90;;;;;;5032677;28;20494;-80
2021/06/20 06:51:36;;;;;;;11.20;3.05;;;23.20;99.90;;;;;;5032353;28;20045;-81
2021/06/20 06:54:02;;;;;;;11.98;3.33;;;23.30;99.90;;;;;;5033303;28;20025;-81
2021/06/20 06:56:28;;;;;;;12.80;3.00;;;23.30;99.90;;;;;;5034427;28;20041;-79
2021/06/20 06:58:53;;;;;;;10.80;2.65;;;23.40;99.90;;;;;;5032847;28;20294;-83
2021/06/20 07:01:19;;;;;;;11.80;2.85;;;23.50;99.90;;;;;;5032445;28;20033;-85
2021/06/20 07:03:45;;;;;;;13.13;2.67;;;23.50;99.90;;;;;;5032928;28;20044;-78
2021/06/20 07:06:11;;;;;;;6.78;2.90;;;23.60;99.90;;;;;;5015211;28;20021;-86
2021/06/20 07:08:37;;;;;;;8.88;3.15;;;23.60;99.90;;;;;;5016994;28;20079;-87
2021/06/20 07:11:03;;;;;;;9.50;2.60;;;23.80;99.90;;;;;;5016275;28;20090;-86
2021/06/20 07:13:29;;;;;;;7.43;2.60;;;23.90;99.90;;;;;;5015416;28;20408;-85
2021/06/20 07:15:54;;;;;;;8.25;2.53;;;24.00;99.90;;;;;;5015241;28;20099;-83
2021/06/20 07:18:20;;;;;;;13.13;3.35;;;24.00;99.80;;;;;;5015190;28;20075;-86
2021/06/20 07:20:49;;;;;;;12.70;3.03;;;24.20;99.50;;;;;;5018067;28;20455;-86
2021/06/20 07:23:15;;;;;;;11.30;3.75;;;24.20;98.90;;;;;;5033068;28;20060;-90
2021/06/20 07:25:41;;;;;;;8.85;2.88;;;24.30;99.00;;;;;;5033723;28;20029;-79
2021/06/20 07:28:07;;;;;;;7.72;2.45;;;24.40;99.00;;;;;;5037604;28;20068;-79
2021/06/20 07:30:33;;;;;;;12.00;2.88;;;24.60;98.40;;;;;;5051783;28;20165;-81
2021/06/20 07:32:59;;;;;;;9.57;3.10;;;24.60;98.10;;;;;;5036036;28;20620;-75
2021/06/20 07:35:25;;;;;;;9.10;2.92;;;24.70;97.60;;;;;;5051981;28;20098;-76
2021/06/20 07:37:51;;;;;;;8.40;2.85;;;24.80;97.60;;;;;;5050776;28;20037;-77
2021/06/20 07:40:17;;;;;;;7.43;2.97;;;25.00;97.40;;;;;;5052298;28;20106;-75
2021/06/20 07:42:46;;;;;;;12.35;3.00;;;25.20;96.80;;;;;;5051636;28;20044;-75
2021/06/20 07:45:14;;;;;;;12.23;2.97;;;25.40;96.30;;;;;;5051741;28;20340;-76
2021/06/20 07:47:40;;;;;;;14.27;3.28;;;25.80;96.10;;;;;;5053646;28;20023;-76
2021/06/20 07:50:07;;;;;;;7.60;3.10;;;26.20;95.30;;;;;;5051820;28;20033;-76
2021/06/20 07:52:33;;;;;;;11.85;3.50;;;26.70;95.10;;;;;;5033706;28;20051;-75
2021/06/20 07:54:59;;;;;;;9.93;3.60;;;27.30;94.40;;;;;;5051021;28;20577;-76
2021/06/20 07:57:25;;;;;;;10.02;3.60;;;27.80;93.20;;;;;;5051312;28;20037;-75
2021/06/20 07:59:51;;;;;;;10.48;2.88;;;28.30;92.50;;;;;;5035274;28;20025;-76
2021/06/20 08:02:17;;;;;;;10.18;3.10;;;28.80;92.10;;;;;;5034016;28;20119;-82
2021/06/20 08:04:44;;;;;;;7.93;2.67;;;29.10;91.10;;;;;;5051577;28;20467;-81
2021/06/20 08:07:10;;;;;;;6.53;2.72;;;29.70;90.30;;;;;;5051279;28;20140;-85
2021/06/20 08:09:35;;;;;;;5.88;2.30;;;30.20;89.00;;;;;;5052246;28;20092;-83
2021/06/20 08:12:02;;;;;;;8.95;2.63;;;30.20;87.60;;;;;;5051068;28;20036;-76
2021/06/20 08:14:27;;;;;;;7.00;2.70;;;30.00;86.00;;;;;;5035239;28;20021;-72
2021/06/20 08:16:53;;;;;;;6.72;2.80;;;30.00;83.90;;;;;;5051613;28;20044;-77
2021/06/20 08:19:19;;;;;;;7.75;2.38;;;30.70;83.40;;;;;;5051422;28;20037;-76
2021/06/20 08:21:46;;;;;;;7.50;2.65;;;30.60;81.70;;;;;;5051611;28;20482;-76
2021/06/20 08:24:11;;;;;;;10.83;3.00;;;30.50;82.10;;;;;;5033116;28;20039;-76
2021/06/20 08:26:37;;;;;;;7.88;2.85;;;31.60;80.70;;;;;;5052619;28;20029;-76
2021/06/20 08:29:04;;;;;;;7.53;2.55;;;31.90;77.60;;;;;;5050449;28;20348;-75
2021/06/20 08:31:29;;;;;;;9.15;3.10;;;31.90;76.20;;;;;;5032778;28;20110;-72
2021/06/20 08:33:55;;;;;;;10.02;2.75;;;31.60;74.60;;;;;;5050847;28;20033;-76
2021/06/20 08:36:21;;;;;;;3.97;2.42;;;31.40;75.10;;;;;;5050879;28;20048;-83
2021/06/20 08:38:46;;;;;;;8.95;2.85;;;31.90;72.10;;;;;;5052655;28;20036;-80
2021/06/20 08:41:16;;;;;;;8.68;2.85;;;31.90;72.40;;;;;;5034022;28;20056;-81
2021/06/20 08:43:43;;;;;;;11.48;2.25;;;32.60;70.30;;;;;;5032718;28;20051;-80
2021/06/20 08:46:10;;;;;;;6.38;2.10;;;32.30;70.10;;;;;;5051197;28;20041;-82
2021/06/20 08:48:38;;;;;;;3.92;2.10;;;32.30;68.20;;;;;;5050931;28;20033;-78
2021/06/20 08:51:05;;;;;;;5.72;2.08;;;32.40;68.30;;;;;;5032710;28;20458;-81
2021/06/20 08:53:31;;;;;;;9.43;2.70;;;32.60;66.50;;;;;;5052684;28;20031;-81
2021/06/20 08:55:57;;;;;;;7.00;1.90;;;31.80;66.50;;;;;;5032768;28;20119;-76
2021/06/20 08:58:28;;;;;;;8.85;2.08;;;30.40;70.40;;;;;;5050805;28;20040;-79
2021/06/20 09:00:58;;;;;;;7.22;2.05;;;30.60;72.00;;;;;;5050548;28;20037;-79
2021/06/20 09:03:24;;;;;;;6.75;2.28;;;31.10;71.80;;;;;;5050105;28;20025;-81
2021/06/20 09:06:04;;;;;;;6.07;2.15;;;31.40;70.50;;;;;;5052442;28;20032;-79
2021/06/20 09:08:30;;;;;;;8.80;2.20;;;31.50;69.80;;;;;;5050594;28;20033;-79
2021/06/20 09:10:57;;;;;;;5.88;2.17;;;30.50;71.50;;;;;;5050035;28;20086;-83
2021/06/20 09:13:30;;;;;;;6.77;2.23;;;30.50;71.90;;;;;;5032897;28;20506;-81
2021/06/20 09:16:05;;;;;;;6.65;2.83;;;30.30;72.10;;;;;;5050460;28;20044;-84
2021/06/20 09:18:31;;;;;;;4.57;2.50;;;29.40;75.30;;;;;;5050363;28;20055;-82
2021/06/20 09:20:57;;;;;;;6.95;1.95;;;29.30;75.80;;;;;;5051991;28;20028;-80
2021/06/20 09:23:23;;;;;;;5.32;2.03;;;29.40;76.40;;;;;;5032572;28;20037;-74
2021/06/20 09:26:01;;;;;;;8.13;2.40;;;29.30;76.10;;;;;;5049917;28;20110;-82
2021/06/20 09:28:36;;;;;;;6.25;2.83;;;28.90;76.80;;;;;;5050317;28;20059;-82
2021/06/20 09:31:03;;;;;;;8.23;2.55;;;28.90;76.80;;;;;;5031592;28;20033;-78
2021/06/20 09:33:31;;;;;;;7.32;2.38;;;28.90;76.20;;;;;;5050099;28;20040;-81
2021/06/20 09:35:58;;;;;;;6.25;2.50;;;28.80;75.80;;;;;;5051879;28;20052;-73
2021/06/20 09:38:25;;;;;;;4.20;2.38;;;28.70;76.40;;;;;;5049069;28;20029;-77
2021/06/20 09:40:59;;;;;;;4.53;2.10;;;28.60;76.40;;;;;;5049819;28;20639;-77
2021/06/20 09:43:25;;;;;;;3.72;1.80;;;28.70;76.40;;;;;;5031833;28;20041;-79
2021/06/20 09:45:52;;;;;;;4.50;2.10;;;29.10;75.10;;;;;;5049404;28;20491;-80
2021/06/20 09:48:25;;;;;;;3.83;2.10;;;29.10;73.80;;;;;;5049370;28;20047;-75
2021/06/20 09:50:51;;;;;;;5.95;2.17;;;28.90;73.30;;;;;;5050883;28;20068;-79
2021/06/20 09:53:30;;;;;;;7.38;1.90;;;29.10;75.40;;;;;;5049229;28;20033;-76
2021/06/20 09:56:18;;;;;;;4.22;2.00;;;29.00;73.50;;;;;;5049509;28;20550;-80
2021/06/20 09:58:46;;;;;;;4.25;1.85;;;28.90;73.40;;;;;;5034185;28;20264;-86
2021/06/20 10:01:16;;;;;;;4.72;2.00;;;28.70;73.50;;;;;;5052011;28;20040;-79
2021/06/20 10:03:44;;;;;;;4.28;1.58;;;28.50;73.00;;;;;;5055349;28;20094;-81
2021/06/20 10:06:11;;;;;;;;;;;28.50;73.90;;;;;;5045642;28;20467;-79
2021/06/20 10:08:37;;;;;;;6.93;1.92;;;28.50;73.70;;;;;;5038109;28;19905;-82
2021/06/20 10:11:03;;;;;;;5.03;2.25;;;28.30;74.80;;;;;;5018603;28;20042;-78
2021/06/20 10:13:29;;;;;;;6.00;2.28;;;28.60;74.90;;;;;;5036257;28;20033;-86
2021/06/20 10:16:09;;;;;;;6.22;1.60;;;28.80;74.00;;;;;;5036434;28;20120;-78
2021/06/20 10:18:37;;;;;;;6.88;2.40;;;28.80;74.20;;;;;;5018283;28;20033;-75
2021/06/20 10:21:03;;;;;;;4.60;2.10;;;28.90;74.00;;;;;;5035889;28;20029;-82
2021/06/20 10:23:29;;;;;;;5.95;2.17;;;28.80;73.80;;;;;;5037643;28;20379;-76
2021/06/20 10:26:08;;;;;;;7.47;2.83;;;29.10;74.20;;;;;;5035738;28;20075;-76
2021/06/20 10:28:34;;;;;;;4.78;2.00;;;28.80;73.80;;;;;;5036038;28;20470;-76
2021/06/20 10:31:08;;;;;;;5.07;2.00;;;28.90;73.50;;;;;;5018669;28;20037;-76
2021/06/20 10:33:37;;;;;;;9.07;2.50;;;28.90;73.40;;;;;;5018417;28;20482;-73
2021/06/20 10:36:10;;;;;;;6.10;2.47;;;28.60;73.10;;;;;;5035652;28;20029;-73
2021/06/20 10:38:46;;;;;;;5.10;2.28;;;28.80;74.10;;;;;;5037739;28;20075;-73
2021/06/20 10:41:24;;;;;;;7.00;2.45;;;28.90;73.60;;;;;;5036076;28;20041;-76
2021/06/20 10:44:01;;;;;;;7.28;2.80;;;29.00;73.70;;;;;;5036167;28;20029;-76
2021/06/20 10:46:31;;;;;;;6.80;3.00;;;29.10;74.30;;;;;;5035731;28;20120;-78
2021/06/20 10:48:58;;;;;;;5.53;2.67;;;28.90;74.10;;;;;;5035808;28;20048;-74
2021/06/20 10:51:24;;;;;;;4.97;2.20;;;28.90;74.30;;;;;;5017905;28;20460;-87
2021/06/20 10:53:51;;;;;;;6.35;2.97;;;28.70;74.70;;;;;;5003417;28;20067;-73
2021/06/20 10:56:28;;;;;;;5.30;2.22;;;28.30;76.00;;;;;;5017919;28;20042;-83
2021/06/20 10:58:55;;;;;;;5.10;2.30;;;28.30;76.20;;;;;;5035776;28;20065;-76
2021/06/20 11:01:23;;;;;;;5.60;2.63;;;27.90;75.90;;;;;;5017665;28;20049;-83
2021/06/20 11:03:52;;;;;;;6.65;2.50;;;28.00;76.90;;;;;;5036447;28;20371;-78
2021/06/20 11:06:19;;;;;;;9.20;3.30;;;28.30;77.10;;;;;;5035536;28;20417;-82
2021/06/20 11:09:01;;;;;;;;;;;28.40;77.40;;;;;;5038028;28;20021;-74
2021/06/20 11:11:33;;;;;;;4.75;2.40;;;28.60;76.40;;;;;;5017568;28;20063;-82
2021/06/20 11:14:00;;;;;;;3.60;2.65;;;28.70;76.00;;;;;;5014444;28;20044;-82
2021/06/20 11:16:29;;;;;;;4.50;2.47;;;28.80;75.60;;;;;;5032739;28;20176;-85
2021/06/20 11:19:09;;;;;;;4.78;2.33;;;28.90;75.10;;;;;;5032719;28;20363;-85
2021/06/20 11:21:37;;;;;;;4.25;2.60;;;28.90;75.40;;;;;;5032212;28;20045;-84
2021/06/20 11:24:03;;;;;;;8.30;2.35;;;28.70;75.10;;;;;;5031962;28;20036;-83
2021/06/20 11:26:29;;;;;;;3.50;2.28;;;28.50;75.50;;;;;;5033701;28;20029;-83
2021/06/20 11:29:07;;;;;;;13.70;3.05;;;28.30;76.30;;;;;;5014815;28;20592;-84
2021/06/20 11:31:45;;;;;;;3.10;2.60;;;28.60;76.60;;;;;;5015092;28;20430;-86
2021/06/20 11:34:11;;;;;;;5.70;2.47;;;28.80;75.90;;;;;;5015527;28;20048;-83
2021/06/20 11:36:36;;;;;;;9.35;2.53;;;29.10;75.10;;;;;;5014550;28;20061;-82
2021/06/20 11:39:10;;;;;;;5.78;2.50;;;29.10;74.20;;;;;;5014060;28;20044;-78
2021/06/20 11:41:43;;;;;;;4.85;2.55;;;28.90;73.40;;;;;;5033493;28;20105;-84
2021/06/20 11:44:09;;;;;;;13.90;2.55;;;28.90;73.60;;;;;;5032056;28;20617;-77
2021/06/20 11:46:36;;;;;;;5.30;2.20;;;28.90;73.70;;;;;;5031522;28;20124;-81
2021/06/20 11:49:03;;;;;;;5.25;2.22;;;28.90;72.80;;;;;;5031701;28;20044;-84
2021/06/20 11:51:31;;;;;;;6.80;2.08;;;29.00;73.40;;;;;;5031559;28;20038;-85
2021/06/20 11:54:08;;;;;;;5.13;2.45;;;29.10;72.60;;;;;;5033447;28;20124;-86
2021/06/20 11:56:34;;;;;;;7.70;2.78;;;29.10;72.00;;;;;;5032422;28;20467;-87
2021/06/20 11:58:59;;;;;;;4.57;2.03;;;29.10;71.00;;;;;;5014256;28;20117;-84
2021/06/20 12:01:47;;;;;;;2.88;1.70;;;28.90;71.20;;;;;;5031581;28;20056;-82
2021/06/20 12:04:21;;;;;;;2.72;1.88;;;28.70;70.80;;;;;;5031473;28;20060;-83
2021/06/20 12:06:48;;;;;;;3.72;1.90;;;28.60;71.30;;;;;;5031542;28;20313;-89
2021/06/20 12:09:14;;;;;;;5.07;1.58;;;28.70;70.90;;;;;;5031821;28;20029;-76
2021/06/20 12:11:41;;;;;;;5.28;1.52;;;28.30;70.20;;;;;;5032966;28;20109;-82
2021/06/20 12:14:18;;;;;;;;;;;28.40;70.20;;;;;;5014242;28;20041;-76
2021/06/20 12:16:49;;;;;;;4.75;1.70;;;28.50;70.20;;;;;;5013274;28;19947;-79
2021/06/20 12:19:16;;;;;;;6.03;1.92;;;28.50;69.20;;;;;;5031304;28;20064;-73
2021/06/20 12:21:43;;;;;;;3.83;2.95;;;28.40;68.80;;;;;;5031438;28;20112;-73
2021/06/20 12:24:12;;;;;;;5.85;1.45;;;28.50;68.90;;;;;;5030195;28;20049;-77
2021/06/20 12:26:40;;;;;;;2.75;1.67;;;28.60;68.40;;;;;;5032395;28;20459;-78
2021/06/20 12:29:06;;;;;;;;;;;28.70;67.60;;;;;;5013826;28;20065;-74
2021/06/20 12:31:32;;;;;;;7.10;1.60;;;28.60;68.00;;;;;;5013198;28;20263;-72
2021/06/20 12:34:08;;;;;;;4.50;1.67;;;28.80;67.50;;;;;;5013818;28;20029;-78
2021/06/20 12:36:35;;;;;;;4.93;1.63;;;28.80;68.10;;;;;;5031024;28;20033;-76
2021/06/20 12:39:02;;;;;;;2.90;1.58;;;28.90;67.30;;;;;;5030875;28;20051;-78
2021/06/20 12:41:29;;;;;;;6.53;1.55;;;29.10;67.90;;;;;;5033634;28;20072;-87
2021/06/20 12:44:03;;;;;;;3.60;2.83;;;29.20;67.10;;;;;;5030788;28;20180;-78
2021/06/20 12:46:37;;;;;;;3.92;2.25;;;29.20;67.10;;;;;;5030955;28;20495;-81